Terminal Aerodrome Forecast
Issued by NWS

Current Version | Previous Version | Graphics & Text | Print | Product List | Glossary On
Versions: 1 2 3 4 5 6 7 8 9 10 11 12 13 14 15 16 17 18 19 20 21 22 23 24 25 26
000
FTUS41 KRNK 251142 AAA
TAFLWB
TAF AMD
KLWB 251142Z 2512/2612 21005KT P6SM SCT010 BKN030
      TEMPO 2512/2513 5SM BR SCT002 BKN040
     FM251400 24007KT P6SM BKN035
     FM251900 24008KT P6SM VCTS OVC030CB
     FM260100 29005KT P6SM BKN015=

USA.gov is the U.S. government's official web portal to all federal, state and local government web resources and services.